createdAt,value
2023-04-01T00:02:26.116Z,0.50
2023-04-01T00:06:29.124Z,0.30
2023-04-01T00:10:31.929Z,0.40
2023-04-01T00:14:35.609Z,0.40
2023-04-01T00:18:40.486Z,0.38
2023-04-01T00:22:43.282Z,0.40
2023-04-01T00:26:46.067Z,0.52
2023-04-01T00:30:49.417Z,0.52
2023-04-01T00:34:54.447Z,0.77
2023-04-01T00:38:57.164Z,0.40
2023-04-01T00:43:00.202Z,0.40
2023-04-01T00:47:03.387Z,0.43
2023-04-01T00:51:10.737Z,0.40
2023-04-01T00:55:16.798Z,0.30
2023-04-01T00:59:26.047Z,0.50
2023-04-01T01:03:28.992Z,0.70
2023-04-01T01:07:40.300Z,0.30
2023-04-01T01:11:45.972Z,0.35
2023-04-01T01:15:51.921Z,0.30
2023-04-01T01:20:33.998Z,0.60
2023-04-01T01:24:51.439Z,0.57
2023-04-01T01:29:03.279Z,0.65
2023-04-01T01:33:22.960Z,0.50
2023-04-01T01:37:29.111Z,0.40
2023-04-01T01:41:34.123Z,0.30
2023-04-01T01:45:41.331Z,0.30
2023-04-01T01:49:45.308Z,0.30
2023-04-01T01:53:49.384Z,0.50
2023-04-01T01:57:54.710Z,0.40
2023-04-01T02:01:58.498Z,0.30
2023-04-01T02:06:03.573Z,0.40
2023-04-01T02:10:08.737Z,0.20
2023-04-01T02:14:16.461Z,0.20
2023-04-01T02:18:21.462Z,0.40
2023-04-01T02:22:27.575Z,0.15
2023-04-01T02:26:32.321Z,0.22
2023-04-01T02:30:38.109Z,0.10
2023-04-01T02:34:40.993Z,0.30
2023-04-01T02:38:45.589Z,0.30
2023-04-01T02:42:49.741Z,0.28
2023-04-01T02:46:53.558Z,0.55
2023-04-01T02:50:56.724Z,0.20
2023-04-01T02:54:59.969Z,0.10
2023-04-01T02:59:04.337Z,0.30
2023-04-01T03:03:07.327Z,0.20
2023-04-01T03:07:11.587Z,0.10
2023-04-01T03:11:15.137Z,0.30
2023-04-01T03:15:19.501Z,0.20
2023-04-01T03:19:22.299Z,0.35
2023-04-01T03:23:25.685Z,0.28
2023-04-01T03:27:28.423Z,0.30
2023-04-01T03:31:32.699Z,0.10
2023-04-01T03:35:36.908Z,0.17
2023-04-01T03:39:39.831Z,0.20
2023-04-01T03:43:42.723Z,0.13
2023-04-01T03:47:47.044Z,0.10
2023-04-01T03:51:49.916Z,0.22
2023-04-01T03:55:53.080Z,0.22
2023-04-01T03:59:56.001Z,0.20
2023-04-01T04:04:00.384Z,0.10
2023-04-01T04:08:06.013Z,0.20
2023-04-01T04:12:09.931Z,0.10
2023-04-01T04:16:13.089Z,0.10
2023-04-01T04:20:22.265Z,0.10
2023-04-01T04:24:25.756Z,0.20
2023-04-01T04:28:37.473Z,0.20
2023-04-01T04:32:41.610Z,0.20
2023-04-01T04:36:45.912Z,0.20
2023-04-01T04:40:48.895Z,0.10
2023-04-01T04:44:51.676Z,0.10
2023-04-01T04:48:54.539Z,0.10
2023-04-01T04:52:59.309Z,0.20
2023-04-01T04:57:02.370Z,0.20
2023-04-01T05:01:12.183Z,0.10
2023-04-01T05:05:16.200Z,0.20
2023-04-01T05:09:20.330Z,0.28
2023-04-01T05:13:23.030Z,0.20
2023-04-01T05:17:26.185Z,0.10
2023-04-01T05:21:28.996Z,0.10
2023-04-01T05:25:35.045Z,0.17
2023-04-01T05:29:38.352Z,0.10
2023-04-01T05:33:44.070Z,0.20
2023-04-01T05:37:47.008Z,0.20
2023-04-01T05:41:51.382Z,0.15
2023-04-01T05:45:54.242Z,0.10
2023-04-01T05:50:13.540Z,0.10
2023-04-01T05:54:16.310Z,0.17
2023-04-01T05:58:22.134Z,0.20
2023-04-01T06:02:25.824Z,0.10
2023-04-01T06:06:31.846Z,0.30
2023-04-01T06:10:57.235Z,0.10
2023-04-01T06:15:12.884Z,0.32
2023-04-01T06:19:27.080Z,0.20
2023-04-01T06:23:46.930Z,0.10
2023-04-01T06:28:11.956Z,0.20
2023-04-01T06:32:47.621Z,0.47
2023-04-01T06:37:06.611Z,0.40
2023-04-01T06:41:40.477Z,0.30
2023-04-01T06:45:49.812Z,0.22
2023-04-01T06:50:27.723Z,0.10
2023-04-01T06:55:21.740Z,0.28
2023-04-01T06:59:59.363Z,0.20
2023-04-01T07:04:06.461Z,0.28
2023-04-01T07:08:14.433Z,0.13
2023-04-01T07:12:25.064Z,0.35
2023-04-01T07:16:51.193Z,0.43
2023-04-01T07:20:55.326Z,0.20
2023-04-01T07:25:05.079Z,0.30
2023-04-01T07:29:13.084Z,0.40
2023-04-01T07:33:40.565Z,0.20
2023-04-01T07:37:52.149Z,1.60
2023-04-01T07:42:03.500Z,0.28
2023-04-01T07:46:18.247Z,0.30
2023-04-01T07:50:27.336Z,0.40
2023-04-01T07:54:40.416Z,0.40
2023-04-01T07:58:54.725Z,0.20
2023-04-01T08:03:32.044Z,0.47
2023-04-01T08:07:42.773Z,0.10
2023-04-01T08:12:26.740Z,0.30
2023-04-01T08:16:48.439Z,0.45
2023-04-01T08:21:01.009Z,0.20
2023-04-01T08:25:08.595Z,0.20
2023-04-01T08:29:16.053Z,0.10
2023-04-01T08:33:26.914Z,0.50
2023-04-01T08:37:40.922Z,2.42
2023-04-01T08:42:13.623Z,1.00
2023-04-01T08:47:01.694Z,0.20
2023-04-01T08:51:37.731Z,0.10
2023-04-01T08:55:51.299Z,0.22
2023-04-01T09:00:05.044Z,0.10
2023-04-01T09:04:32.978Z,0.68
2023-04-01T09:08:52.650Z,0.20
2023-04-01T09:13:15.257Z,0.10
2023-04-01T09:17:40.284Z,0.20
2023-04-01T09:22:16.532Z,0.20
2023-04-01T09:26:37.400Z,0.68
2023-04-01T09:31:06.392Z,0.43
2023-04-01T09:35:24.582Z,0.15
2023-04-01T09:39:38.782Z,0.40
2023-04-01T09:44:04.205Z,0.40
2023-04-01T09:48:23.359Z,0.13
2023-04-01T09:52:36.534Z,0.20
2023-04-01T09:57:38.257Z,0.30
2023-04-01T10:02:23.618Z,0.40
2023-04-01T10:07:14.451Z,0.47
2023-04-01T10:11:57.419Z,0.10
2023-04-01T10:16:31.263Z,0.40
2023-04-01T10:20:56.678Z,0.28
2023-04-01T10:25:28.608Z,0.13
2023-04-01T10:30:03.917Z,0.10
2023-04-01T10:34:40.418Z,0.30
2023-04-01T10:39:15.775Z,2.30
2023-04-01T10:43:48.055Z,0.40
2023-04-01T10:48:12.537Z,0.40
2023-04-01T10:52:42.692Z,0.30
2023-04-01T10:57:02.071Z,0.40
2023-04-01T11:02:08.172Z,0.30
2023-04-01T11:07:26.076Z,0.50
2023-04-01T11:12:06.062Z,0.70
2023-04-01T11:16:36.201Z,0.40
2023-04-01T11:21:22.014Z,0.50
2023-04-01T11:25:58.706Z,0.90
2023-04-01T11:30:42.963Z,0.80
2023-04-01T11:35:00.428Z,0.35
2023-04-01T11:39:14.242Z,0.57
2023-04-01T11:43:45.648Z,0.50
2023-04-01T11:48:15.968Z,0.60
2023-04-01T11:52:34.224Z,0.50
2023-04-01T11:56:52.238Z,0.40
2023-04-01T12:01:21.475Z,0.47
2023-04-01T12:05:39.998Z,0.50
2023-04-01T12:09:50.878Z,0.40
2023-04-01T12:14:01.713Z,0.40
2023-04-01T12:18:15.700Z,0.70
2023-04-01T12:22:33.854Z,0.60
2023-04-01T12:27:01.573Z,0.63
2023-04-01T12:31:20.920Z,0.50
2023-04-01T12:35:26.709Z,0.80
2023-04-01T12:39:50.343Z,0.60
2023-04-01T12:44:11.335Z,0.60
2023-04-01T12:48:48.260Z,0.60
2023-04-01T12:53:04.079Z,0.60
2023-04-01T12:57:23.953Z,0.80
2023-04-01T13:01:54.376Z,0.90
2023-04-01T13:06:29.496Z,1.38
2023-04-01T13:10:46.832Z,1.60
2023-04-01T13:15:36.277Z,0.88
2023-04-01T13:20:01.910Z,0.98
2023-04-01T13:24:20.155Z,0.65
2023-04-01T13:28:27.815Z,0.93
2023-04-01T13:32:44.628Z,0.60
2023-04-01T13:37:01.540Z,0.70
2023-04-01T13:41:14.595Z,0.70
2023-04-01T13:45:20.989Z,0.70
2023-04-01T13:49:58.984Z,0.88
2023-04-01T13:54:39.136Z,0.70
2023-04-01T13:58:56.163Z,0.88
2023-04-01T14:03:20.198Z,0.80
2023-04-01T14:07:49.345Z,0.82
2023-04-01T14:12:02.882Z,0.70
2023-04-01T14:16:22.976Z,0.70
2023-04-01T14:20:41.690Z,0.80
2023-04-01T14:24:59.870Z,0.88
2023-04-01T14:29:13.746Z,1.40
2023-04-01T14:33:29.366Z,0.63
2023-04-01T14:38:01.951Z,0.95
2023-04-01T14:42:25.932Z,1.13
2023-04-01T14:46:56.371Z,1.17
2023-04-01T14:51:10.973Z,1.05
2023-04-01T14:55:28.209Z,1.00
2023-04-01T14:59:32.531Z,1.42
2023-04-01T15:03:42.184Z,1.40
2023-04-01T15:08:02.069Z,1.63
2023-04-01T15:12:15.775Z,1.23
2023-04-01T15:16:29.313Z,1.27
2023-04-01T15:20:58.198Z,1.30
2023-04-01T15:25:19.313Z,0.90
2023-04-01T15:29:40.537Z,1.42
2023-04-01T15:33:58.331Z,1.00
2023-04-01T15:38:08.755Z,1.63
2023-04-01T15:42:37.435Z,1.20
2023-04-01T15:46:46.622Z,1.13
2023-04-01T15:51:04.208Z,1.45
2023-04-01T15:55:22.900Z,1.38
2023-04-01T15:59:51.868Z,1.50
2023-04-01T16:04:07.579Z,1.50
2023-04-01T16:08:26.331Z,1.60
2023-04-01T16:12:44.979Z,1.92
2023-04-01T16:17:01.121Z,1.80
2023-04-01T16:21:08.952Z,1.90
2023-04-01T16:25:35.981Z,2.00
2023-04-01T16:29:47.172Z,2.20
2023-04-01T16:33:57.221Z,2.30
2023-04-01T16:38:09.320Z,2.22
2023-04-01T16:42:26.076Z,3.28
2023-04-01T16:46:36.076Z,2.70
2023-04-01T16:50:49.418Z,2.50
2023-04-01T16:55:00.866Z,2.47
2023-04-01T16:59:14.446Z,2.55
2023-04-01T17:03:22.578Z,2.67
2023-04-01T17:07:33.116Z,2.50
2023-04-01T17:11:41.673Z,2.42
2023-04-01T17:15:55.373Z,2.70
2023-04-01T17:20:13.619Z,2.55
2023-04-01T17:24:33.127Z,3.40
2023-04-01T17:28:46.868Z,2.83
2023-04-01T17:33:02.605Z,3.15
2023-04-01T17:37:18.471Z,2.80
2023-04-01T17:41:32.507Z,2.90
2023-04-01T17:45:44.111Z,3.70
2023-04-01T17:49:58.883Z,2.50
2023-04-01T17:54:09.014Z,2.42
2023-04-01T17:58:19.843Z,2.55
2023-04-01T18:02:30.232Z,2.88
2023-04-01T18:06:39.156Z,2.90
2023-04-01T18:10:53.389Z,2.78
2023-04-01T18:15:14.705Z,3.92
2023-04-01T18:19:29.008Z,4.88
2023-04-01T18:23:42.776Z,6.70
2023-04-01T18:27:52.352Z,7.55
2023-04-01T18:32:09.192Z,6.53
2023-04-01T18:36:21.134Z,6.25
2023-04-01T18:40:32.284Z,5.38
2023-04-01T18:44:45.218Z,5.55
2023-04-01T18:48:57.490Z,6.65
2023-04-01T18:53:17.637Z,6.45
2023-04-01T18:57:22.633Z,6.28
2023-04-01T19:01:32.314Z,5.90
2023-04-01T19:05:38.995Z,7.15
2023-04-01T19:09:46.985Z,6.80
2023-04-01T19:14:00.899Z,5.75
2023-04-01T19:18:22.139Z,6.50
2023-04-01T19:22:40.223Z,5.78
2023-04-01T19:26:47.975Z,6.13
2023-04-01T19:30:58.221Z,5.30
2023-04-01T19:35:14.892Z,2.72
2023-04-01T19:39:35.361Z,2.08
2023-04-01T19:43:51.001Z,2.40
2023-04-01T19:48:05.544Z,2.75
2023-04-01T19:52:16.175Z,3.08
2023-04-01T19:56:22.371Z,3.22
2023-04-01T20:00:32.124Z,3.22
2023-04-01T20:04:42.713Z,2.90
2023-04-01T20:08:53.001Z,3.15
2023-04-01T20:13:04.199Z,2.55
2023-04-01T20:17:23.335Z,2.17
2023-04-01T20:21:39.286Z,2.20
2023-04-01T20:25:46.028Z,2.00
2023-04-01T20:30:07.205Z,2.20
2023-04-01T20:34:41.228Z,2.58
2023-04-01T20:39:13.940Z,3.00
2023-04-01T20:43:35.352Z,2.80
2023-04-01T20:47:52.439Z,3.15
2023-04-01T20:52:01.420Z,2.90
2023-04-01T20:56:27.568Z,2.60
2023-04-01T21:00:37.061Z,2.50
2023-04-01T21:04:56.021Z,2.58
2023-04-01T21:09:13.182Z,2.20
2023-04-01T21:13:29.555Z,2.55
2023-04-01T21:17:53.325Z,1.85
2023-04-01T21:22:36.590Z,2.10
2023-04-01T21:26:51.722Z,1.90
2023-04-01T21:31:10.313Z,1.60
2023-04-01T21:35:27.996Z,1.65
2023-04-01T21:39:52.807Z,1.45
2023-04-01T21:44:25.661Z,1.38
2023-04-01T21:48:54.904Z,1.85
2023-04-01T21:53:35.031Z,1.60
2023-04-01T21:58:11.397Z,1.75
2023-04-01T22:02:50.164Z,1.70
2023-04-01T22:07:04.361Z,1.70
2023-04-01T22:11:13.259Z,1.60
2023-04-01T22:15:30.336Z,1.77
2023-04-01T22:19:43.457Z,2.00
2023-04-01T22:23:54.912Z,2.13
2023-04-01T22:28:02.627Z,2.10
2023-04-01T22:32:10.509Z,2.30
2023-04-01T22:36:23.778Z,2.67
2023-04-01T22:40:32.850Z,2.70
2023-04-01T22:44:49.127Z,2.30
2023-04-01T22:48:58.745Z,2.88
2023-04-01T22:53:08.379Z,2.97
2023-04-01T22:57:16.829Z,3.13
2023-04-01T23:01:23.065Z,3.22
2023-04-01T23:05:27.609Z,3.35
2023-04-01T23:09:31.689Z,3.47
2023-04-01T23:13:41.283Z,3.50
2023-04-01T23:18:03.425Z,3.42
2023-04-01T23:22:18.043Z,4.15
2023-04-01T23:26:25.979Z,4.18
2023-04-01T23:30:50.834Z,4.65
2023-04-01T23:34:55.869Z,5.20
2023-04-01T23:39:03.763Z,4.97
2023-04-01T23:43:15.834Z,4.80
2023-04-01T23:47:22.582Z,4.80
2023-04-01T23:51:28.419Z,4.57
2023-04-01T23:55:34.910Z,4.65
2023-04-01T23:59:39.209Z,4.80
